Terminal Aerodrome Forecast
Issued by NWS

Home | Current Version | Previous Version | Text Only | Print | Product List | Glossary On
Versions: 1 2 3 4 5 6 7 8 9 10 11 12 13 14 15 16 17 18 19 20 21 22 23 24
000
FTUS42 KMFL 221139
TAFMIA
TAF
KMIA 221139Z 2212/2312 14010KT P6SM VCSH SCT025 BKN050 OVC200
     FM221400 15013G20KT P6SM VCSH SCT020 BKN035 BKN050
     FM221600 15015G21KT 6SM SHRA VCTS SCT020CB OVC030
     FM222300 16010KT 6SM -SHRA SCT010 BKN030 OVC050
     FM230300 VRB05KT P6SM SCT030 BKN050 BKN100=

USA.gov is the U.S. government's official web portal to all federal, state and local government web resources and services.